Time;durP1;ratioP1;P1;durP2;ratioP2;P2;SDS_P1;SDS_P2;PMS_P1;PMS_P2;Temp;Humidity;BMP_temperature;BMP_pressure;BME280_temperature;BME280_humidity;BME280_pressure;Samples;Min_cycle;Max_cycle;Signal;HPM_P1;HPM_P2
2023/07/20 00:00:36;;;;;;;0.75;0.75;;;;;;;20.88;51.77;100823.91;5211504;28;20624;-84
2023/07/20 00:03:27;;;;;;;0.25;0.25;;;;;;;20.85;52.01;100826.81;5213150;28;20055;-85
2023/07/20 00:06:18;;;;;;;0.20;0.20;;;;;;;20.87;52.83;100831.06;5197825;28;20049;-85
2023/07/20 00:09:09;;;;;;;0.55;0.55;;;;;;;20.89;52.55;100822.97;5211731;28;20049;-84
2023/07/20 00:12:00;;;;;;;0.43;0.43;;;;;;;20.90;52.45;100824.66;5196139;28;20048;-84
2023/07/20 00:14:53;;;;;;;0.28;0.28;;;;;;;20.91;52.33;100824.56;5227500;28;20040;-84
2023/07/20 00:17:44;;;;;;;0.20;0.20;;;;;;;20.70;55.48;100821.53;5210905;28;20048;-84
2023/07/20 00:20:36;;;;;;;0.60;0.45;;;;;;;20.82;53.40;100813.69;5227724;28;20033;-85
2023/07/20 00:23:26;;;;;;;0.50;0.50;;;;;;;20.74;54.08;100820.41;5195667;28;20047;-85
2023/07/20 00:26:17;;;;;;;0.30;0.30;;;;;;;20.47;56.75;100817.78;5213179;28;20059;-84
2023/07/20 00:29:08;;;;;;;0.30;0.30;;;;;;;20.68;53.91;100812.78;5214163;28;20053;-87
2023/07/20 00:31:59;;;;;;;1.20;1.02;;;;;;;20.68;53.96;100812.78;5220295;28;20029;-85
2023/07/20 00:34:49;;;;;;;6.43;0.55;;;;;;;20.70;53.58;100813.53;5205175;28;20033;-87
2023/07/20 00:37:40;;;;;;;0.50;0.50;;;;;;;20.65;54.98;100810.31;5195874;28;20033;-85
2023/07/20 00:40:38;;;;;;;2.17;1.75;;;;;;;20.64;55.56;100811.28;5223629;28;20033;-85
2023/07/20 00:43:28;;;;;;;0.85;0.65;;;;;;;20.56;54.51;100813.63;5208424;28;20105;-84
2023/07/20 00:46:24;;;;;;;0.80;0.73;;;;;;;20.55;54.58;100814.56;5220191;28;20096;-84
2023/07/20 00:49:16;;;;;;;1.02;0.68;;;;;;;20.65;54.42;100810.31;5203405;28;20033;-85
2023/07/20 00:52:10;;;;;;;0.85;0.50;;;;;;;20.69;54.20;100819.84;5195062;28;20037;-84
2023/07/20 00:55:01;;;;;;;0.28;0.28;;;;;;;20.63;54.39;100811.41;5202616;28;20219;-85
2023/07/20 00:57:52;;;;;;;0.75;0.75;;;;;;;20.43;57.13;100811.78;5191763;28;20128;-84
2023/07/20 01:00:43;;;;;;;0.60;0.60;;;;;;;20.48;57.65;100815.94;5203063;28;20087;-84
2023/07/20 01:03:34;;;;;;;0.30;0.30;;;;;;;20.42;56.68;100820.75;5190263;28;20060;-84
2023/07/20 01:06:35;;;;;;;0.55;0.55;;;;;;;20.43;57.55;100819.78;5205293;28;20540;-84
2023/07/20 01:09:58;;;;;;;3.50;1.25;;;;;;;20.47;56.89;100832.88;5183248;28;20044;-84
2023/07/20 01:12:53;;;;;;;0.40;0.40;;;;;;;20.45;56.51;100836.50;5205734;28;20029;-85
2023/07/20 01:15:51;;;;;;;0.13;0.13;;;;;;;20.32;57.78;100827.63;5201617;28;20028;-85
2023/07/20 01:18:42;;;;;;;2.38;1.77;;;;;;;20.41;59.74;100826.19;5182821;28;20037;-86
2023/07/20 01:21:51;;;;;;;0.68;0.68;;;;;;;20.33;60.78;100821.34;5193913;28;20519;-84
2023/07/20 01:25:05;;;;;;;0.32;0.32;;;;;;;20.39;59.88;100815.59;5189536;28;20570;-86
2023/07/20 01:28:14;;;;;;;0.77;0.77;;;;;;;20.35;60.39;100818.56;5201830;28;20033;-84
2023/07/20 01:31:24;;;;;;;0.38;0.38;;;;;;;20.40;59.21;100817.31;5190790;28;20045;-85
2023/07/20 01:34:18;;;;;;;0.20;0.20;;;;;;;20.07;62.10;100815.09;5193706;28;20045;-85
2023/07/20 01:37:10;;;;;;;0.30;0.30;;;;;;;19.98;61.08;100816.53;5227138;28;20040;-85
2023/07/20 01:40:01;;;;;;;0.20;0.20;;;;;;;20.15;61.04;100819.91;5210065;28;20037;-84
2023/07/20 01:42:53;;;;;;;1.98;1.42;;;;;;;20.25;59.24;100815.69;5210790;28;20032;-85
2023/07/20 01:45:44;;;;;;;0.50;0.50;;;;;;;20.24;58.66;100813.97;5209573;28;20311;-85
2023/07/20 01:48:35;;;;;;;0.70;0.70;;;;;;;20.09;60.16;100819.38;5213515;28;20040;-84
2023/07/20 01:51:26;;;;;;;0.50;0.50;;;;;;;20.14;59.69;100816.41;5205935;28;20049;-84
2023/07/20 01:54:16;;;;;;;0.32;0.32;;;;;;;20.15;60.14;100811.91;5195109;28;20167;-84
2023/07/20 01:57:07;;;;;;;0.45;0.45;;;;;;;20.06;59.74;100810.72;5193489;28;20033;-85
2023/07/20 01:59:58;;;;;;;0.73;0.60;;;;;;;20.08;59.16;100808.81;5200037;28;20056;-84
2023/07/20 02:02:49;;;;;;;0.43;0.43;;;;;;;20.07;58.76;100815.09;5212324;28;20092;-85
2023/07/20 02:05:42;;;;;;;4.85;1.30;;;;;;;20.03;59.16;100805.59;5209801;28;20032;-85
2023/07/20 02:08:33;;;;;;;0.45;0.45;;;;;;;20.07;58.47;100810.63;5200987;28;20041;-85
2023/07/20 02:11:24;;;;;;;0.35;0.35;;;;;;;19.96;61.74;100810.44;5194508;28;20708;-84
2023/07/20 02:14:14;;;;;;;0.30;0.30;;;;;;;19.94;60.98;100805.25;5195310;28;20262;-83
2023/07/20 02:17:05;;;;;;;0.32;0.32;;;;;;;19.92;60.74;100806.28;5213449;28;20119;-85
2023/07/20 02:19:59;;;;;;;0.80;0.65;;;;;;;19.97;60.19;100804.19;5208409;28;20049;-84
2023/07/20 02:22:50;;;;;;;0.73;0.73;;;;;;;19.84;61.45;100798.75;5191309;28;20025;-85
2023/07/20 02:25:41;;;;;;;0.30;0.30;;;;;;;19.77;61.97;100806.31;5193215;28;20041;-84
2023/07/20 02:28:32;;;;;;;0.20;0.20;;;;;;;19.53;64.21;100805.22;5194195;28;20033;-84
2023/07/20 02:31:22;;;;;;;0.20;0.20;;;;;;;19.45;63.89;100803.03;5215053;28;20049;-84
2023/07/20 02:34:13;;;;;;;0.60;0.60;;;;;;;19.57;62.42;100806.72;5200366;28;20037;-85
2023/07/20 02:37:04;;;;;;;0.30;0.30;;;;;;;19.46;63.61;100802.09;5226619;28;20525;-85
2023/07/20 02:39:55;;;;;;;0.52;0.52;;;;;;;19.52;62.22;100804.34;5217725;28;20055;-86
2023/07/20 02:42:49;;;;;;;0.40;0.40;;;;;;;19.60;62.63;100803.88;5222826;28;20041;-85
2023/07/20 02:45:41;;;;;;;0.40;0.40;;;;;;;19.64;61.69;100800.06;5215506;28;20296;-85
2023/07/20 02:48:32;;;;;;;0.43;0.43;;;;;;;19.64;61.49;100800.94;5215299;28;20037;-83
2023/07/20 02:51:23;;;;;;;0.28;0.28;;;;;;;19.58;61.14;100803.97;5194069;28;20092;-84
2023/07/20 02:54:15;;;;;;;0.20;0.20;;;;;;;19.50;62.55;100803.63;5219965;28;20037;-84
2023/07/20 02:57:05;;;;;;;0.30;0.30;;;;;;;19.59;61.30;100811.00;5207526;28;20029;-86
2023/07/20 02:59:56;;;;;;;15.93;1.85;;;;;;;19.61;60.78;100805.59;5217949;28;20037;-85
2023/07/20 03:02:48;;;;;;;1.40;1.30;;;;;;;19.55;60.49;100812.16;5218511;28;20033;-84
2023/07/20 03:05:42;;;;;;;0.40;0.40;;;;;;;19.55;60.47;100808.63;5178322;28;20037;-84
2023/07/20 03:08:33;;;;;;;0.30;0.30;;;;;;;19.44;61.54;100811.97;5218269;28;20029;-84
2023/07/20 03:11:24;;;;;;;0.43;0.43;;;;;;;19.48;60.91;100818.81;5199596;28;20040;-85
2023/07/20 03:14:15;;;;;;;0.60;0.60;;;;;;;19.47;61.08;100817.94;5211955;28;20045;-85
2023/07/20 03:17:05;;;;;;;0.50;0.50;;;;;;;19.45;61.06;100825.19;5199008;28;20035;-84
2023/07/20 03:19:56;;;;;;;0.30;0.30;;;;;;;19.46;60.48;100828.69;5201653;28;20044;-85
2023/07/20 03:22:47;;;;;;;0.73;0.63;;;;;;;19.45;61.71;100827.84;5217502;28;20262;-86
2023/07/20 03:25:38;;;;;;;0.35;0.35;;;;;;;19.38;61.21;100823.84;5214496;28;20041;-84
2023/07/20 03:28:29;;;;;;;0.30;0.30;;;;;;;19.31;63.10;100823.41;5200320;28;20028;-84
2023/07/20 03:31:20;;;;;;;0.30;0.30;;;;;;;19.41;60.94;100823.66;5231108;28;20033;-85
2023/07/20 03:34:11;;;;;;;0.20;0.20;;;;;;;19.40;60.43;100826.44;5198102;28;20116;-84
2023/07/20 03:37:04;;;;;;;0.55;0.55;;;;;;;19.40;60.48;100827.28;5198208;28;20040;-84
2023/07/20 03:39:55;;;;;;;0.45;0.40;;;;;;;19.45;61.23;100830.50;5213523;28;20167;-84
2023/07/20 03:42:45;;;;;;;0.65;0.65;;;;;;;19.22;62.46;100834.59;5204137;28;20036;-84
2023/07/20 03:45:36;;;;;;;0.40;0.40;;;;;;;19.32;62.12;100835.75;5196336;28;20041;-85
2023/07/20 03:48:27;;;;;;;0.50;0.40;;;;;;;19.40;62.12;100837.91;5212470;28;20028;-84
2023/07/20 03:51:38;;;;;;;0.60;0.60;;;;;;;19.33;61.38;100837.47;5219351;28;20028;-84
2023/07/20 03:54:29;;;;;;;0.43;0.43;;;;;;;19.34;62.43;100843.63;5199846;28;20033;-86
2023/07/20 03:57:20;;;;;;;0.60;0.60;;;;;;;19.37;61.48;100837.25;5196945;28;20060;-84
2023/07/20 04:00:12;;;;;;;0.30;0.30;;;;;;;19.22;64.31;100839.03;5200323;28;20150;-84
2023/07/20 04:03:03;;;;;;;0.82;0.82;;;;;;;19.21;62.64;100835.53;5199179;28;20230;-84
2023/07/20 04:05:57;;;;;;;1.02;0.95;;;;;;;19.25;62.62;100841.53;5214712;28;20074;-84
2023/07/20 04:08:48;;;;;;;0.63;0.57;;;;;;;19.22;62.32;100844.38;5211563;28;20098;-84
2023/07/20 04:11:40;;;;;;;1.85;0.57;;;;;;;19.25;61.12;100850.38;5213721;28;20027;-84
2023/07/20 04:14:31;;;;;;;0.90;0.90;;;;;;;19.22;62.00;100855.00;5212290;28;20112;-85
2023/07/20 04:17:21;;;;;;;0.28;0.28;;;;;;;19.22;62.27;100855.00;5213870;28;20033;-84
2023/07/20 04:20:18;;;;;;;0.40;0.40;;;;;;;19.23;62.82;100852.28;5212054;28;20044;-84
2023/07/20 04:23:08;;;;;;;0.32;0.32;;;;;;;19.22;63.01;100855.88;5205574;28;20129;-83
2023/07/20 04:25:59;;;;;;;0.55;0.55;;;;;;;19.18;62.51;100855.22;5188643;28;20107;-84
2023/07/20 04:28:50;;;;;;;0.30;0.30;;;;;;;19.25;62.07;100860.16;5188966;28;20348;-84
2023/07/20 04:31:41;;;;;;;1.65;0.50;;;;;;;19.28;63.18;100865.28;5192491;28;20029;-84
2023/07/20 04:34:32;;;;;;;0.68;0.68;;;;;;;19.19;62.68;100864.91;5206165;28;20412;-84
2023/07/20 04:37:22;;;;;;;0.30;0.30;;;;;;;19.28;63.48;100863.47;5224674;28;20067;-83
2023/07/20 04:40:15;;;;;;;0.50;0.50;;;;;;;19.15;64.67;100865.19;5212928;28;20033;-84
2023/07/20 04:43:06;;;;;;;0.50;0.50;;;;;;;19.23;62.62;100870.03;5193621;28;20028;-83
2023/07/20 04:45:58;;;;;;;2.55;0.73;;;;;;;19.25;63.91;100860.16;5190083;28;20299;-83
2023/07/20 04:48:49;;;;;;;0.40;0.40;;;;;;;19.12;65.11;100873.34;5206086;28;20512;-84
2023/07/20 04:51:39;;;;;;;1.55;1.38;;;;;;;19.07;64.01;100872.78;5192022;28;20029;-84
2023/07/20 04:54:30;;;;;;;1.20;0.73;;;;;;;18.84;65.75;100867.84;5204058;28;20032;-84
2023/07/20 04:57:23;;;;;;;0.40;0.40;;;;;;;19.05;63.55;100867.53;5195927;28;20029;-84
2023/07/20 05:00:15;;;;;;;0.40;0.40;;;;;;;18.90;66.14;100868.41;5193211;28;20050;-84
2023/07/20 05:03:05;;;;;;;0.73;0.73;;;;;;;19.10;64.39;100872.56;5205739;28;20116;-83
2023/07/20 05:05:57;;;;;;;0.32;0.32;;;;;;;19.21;62.95;100863.97;5208588;28;20087;-84
2023/07/20 05:08:48;;;;;;;0.52;0.38;;;;;;;19.21;63.95;100872.78;5221326;28;20049;-84
2023/07/20 05:11:39;;;;;;;3.50;1.95;;;;;;;19.05;65.04;100864.88;5186790;28;20293;-84
2023/07/20 05:14:29;;;;;;;2.15;0.85;;;;;;;18.76;66.55;100864.78;5204837;28;20041;-83
2023/07/20 05:17:20;;;;;;;0.93;0.93;;;;;;;19.12;64.61;100868.03;5225415;28;20088;-84
2023/07/20 05:20:12;;;;;;;1.63;0.93;;;;;;;19.04;66.06;100871.16;5228227;28;20067;-85
2023/07/20 05:23:03;;;;;;;1.75;0.95;;;;;;;18.60;68.90;100869.31;5188644;28;20080;-84
2023/07/20 05:25:58;;;;;;;0.40;0.40;;;;;;;18.67;67.87;100873.31;5200650;28;20032;-84
2023/07/20 05:28:49;;;;;;;0.65;0.65;;;;;;;18.96;65.82;100876.09;5215785;28;20102;-84
2023/07/20 05:31:39;;;;;;;0.38;0.38;;;;;;;18.78;66.83;100883.31;5187668;28;20111;-84
2023/07/20 05:34:31;;;;;;;0.60;0.60;;;;;;;18.99;65.40;100884.72;5219534;28;20149;-84
2023/07/20 05:37:21;;;;;;;0.93;0.93;;;;;;;19.13;64.70;100878.56;5219126;28;20109;-84
2023/07/20 05:40:14;;;;;;;0.80;0.80;;;;;;;19.12;66.00;100879.53;5188444;28;20044;-84
2023/07/20 05:43:05;;;;;;;0.97;0.97;;;;;;;19.10;65.05;100876.09;5221023;28;20032;-84
2023/07/20 05:45:56;;;;;;;0.77;0.77;;;;;;;19.11;65.44;100874.28;5213093;28;20033;-85
2023/07/20 05:48:47;;;;;;;11.48;2.90;;;;;;;19.07;66.52;100878.94;5230461;28;20021;-84
2023/07/20 05:51:37;;;;;;;1.63;1.52;;;;;;;18.99;66.20;100881.19;5213403;28;20017;-87
2023/07/20 05:54:29;;;;;;;0.52;0.50;;;;;;;18.72;68.87;100881.84;5227091;28;20044;-85
2023/07/20 05:57:20;;;;;;;1.73;1.50;;;;;;;18.97;67.08;100880.44;5196340;28;20623;-84
2023/07/20 06:00:12;;;;;;;1.10;1.02;;;;;;;18.68;69.33;100883.00;5200653;28;20045;-84
2023/07/20 06:03:03;;;;;;;0.30;0.30;;;;;;;18.72;69.41;100888.03;5205654;28;20025;-84
2023/07/20 06:06:00;;;;;;;2.85;0.85;;;;;;;18.67;69.50;100889.25;5187914;28;20044;-84
2023/07/20 06:08:51;;;;;;;1.10;0.98;;;;;;;19.05;66.45;100893.28;5192167;28;20025;-84
2023/07/20 06:11:43;;;;;;;0.82;0.82;;;;;;;19.18;65.21;100892.44;5190007;28;20029;-83
2023/07/20 06:14:34;;;;;;;0.60;0.60;;;;;;;19.02;67.23;100902.28;5185129;28;20049;-84
2023/07/20 06:17:24;;;;;;;0.82;0.82;;;;;;;18.81;68.13;100905.25;5204782;28;20064;-84
2023/07/20 06:20:15;;;;;;;1.10;1.00;;;;;;;18.57;69.77;100907.53;5199630;28;20033;-84
2023/07/20 06:23:07;;;;;;;1.73;1.02;;;;;;;18.96;67.43;100903.50;5217808;28;20083;-84
2023/07/20 06:25:58;;;;;;;1.20;0.82;;;;;;;19.17;65.90;100901.38;5205687;28;20041;-84
2023/07/20 06:28:49;;;;;;;6.95;1.80;;;;;;;19.24;65.32;100907.19;5204534;28;20040;-84
2023/07/20 06:31:39;;;;;;;0.85;0.80;;;;;;;18.64;69.81;100911.56;5189140;28;20530;-84
2023/07/20 06:34:30;;;;;;;1.85;1.20;;;;;;;18.70;68.48;100897.06;5187674;28;20041;-84
2023/07/20 06:37:21;;;;;;;1.50;1.40;;;;;;;19.09;66.88;100902.78;5205868;28;20025;-84
2023/07/20 06:40:12;;;;;;;2.28;1.63;;;;;;;18.98;67.81;100901.63;5186135;28;20036;-84
2023/07/20 06:43:03;;;;;;;1.13;1.10;;;;;;;19.11;66.66;100907.06;5188122;28;20029;-83
2023/07/20 06:45:54;;;;;;;0.63;0.63;;;;;;;18.65;70.46;100901.75;5205039;28;20065;-83
2023/07/20 06:48:45;;;;;;;0.80;0.77;;;;;;;18.70;69.92;100897.91;5221146;28;20086;-83
2023/07/20 06:51:35;;;;;;;1.15;0.93;;;;;;;19.05;67.90;100902.09;5199635;28;20051;-83
2023/07/20 06:54:26;;;;;;;1.23;0.95;;;;;;;18.80;68.90;100902.69;5201097;28;20037;-83
2023/07/20 06:57:17;;;;;;;0.75;0.75;;;;;;;18.76;68.85;100911.78;5184764;28;20531;-83
2023/07/20 07:00:09;;;;;;;2.40;0.88;;;;;;;18.60;69.46;100911.81;5188656;28;20044;-83
2023/07/20 07:02:59;;;;;;;0.63;0.63;;;;;;;18.66;68.58;100922.97;5197970;28;20113;-83
2023/07/20 07:05:55;;;;;;;0.40;0.40;;;;;;;18.86;67.41;100924.44;5218354;28;20037;-84
2023/07/20 07:08:45;;;;;;;0.98;0.88;;;;;;;18.36;69.49;100921.09;5201490;28;20056;-84
2023/07/20 07:11:36;;;;;;;0.80;0.80;;;;;;;18.08;70.29;100935.06;5206837;28;20033;-85
2023/07/20 07:14:27;;;;;;;0.88;0.88;;;;;;;18.76;66.78;100925.09;5202749;28;20041;-86
2023/07/20 07:17:18;;;;;;;1.30;1.20;;;;;;;18.47;68.60;100930.25;5196747;28;20029;-85
2023/07/20 07:20:09;;;;;;;3.42;1.88;;;;;;;18.55;68.15;100920.06;5217820;28;20045;-84
2023/07/20 07:23:00;;;;;;;0.75;0.75;;;;;;;18.84;66.96;100921.03;5202645;28;20039;-85
2023/07/20 07:25:51;;;;;;;0.93;0.57;;;;;;;18.83;66.77;100919.31;5211655;28;20148;-85
2023/07/20 07:28:42;;;;;;;0.63;0.60;;;;;;;19.03;65.25;100915.50;5211380;28;20021;-85
2023/07/20 07:31:35;;;;;;;2.83;0.70;;;;;;;18.79;66.01;100925.75;5228383;28;20027;-85
2023/07/20 07:34:26;;;;;;;0.75;0.75;;;;;;;18.98;64.90;100922.03;5201406;28;20048;-85
2023/07/20 07:37:17;;;;;;;1.00;1.00;;;;;;;18.92;66.20;100925.03;5226179;28;20028;-85
2023/07/20 07:40:08;;;;;;;0.63;0.60;;;;;;;18.84;67.23;100930.81;5213827;28;20060;-85
2023/07/20 07:42:59;;;;;;;0.30;0.30;;;;;;;18.80;66.57;100935.41;5226831;28;20025;-84
2023/07/20 07:45:50;;;;;;;4.22;1.13;;;;;;;18.88;65.90;100935.81;5217656;28;20066;-84
2023/07/20 07:48:42;;;;;;;1.27;1.17;;;;;;;19.07;65.26;100940.09;5194842;28;20657;-85
2023/07/20 07:51:32;;;;;;;6.70;1.08;;;;;;;19.15;64.42;100939.66;5193516;28;20088;-83
2023/07/20 07:54:23;;;;;;;0.80;0.80;;;;;;;18.96;65.68;100945.22;5205110;28;20036;-84
2023/07/20 07:57:14;;;;;;;0.30;0.30;;;;;;;18.88;64.80;100942.97;5188184;28;20083;-84
2023/07/20 08:00:11;;;;;;;0.38;0.38;;;;;;;19.09;64.62;100946.19;5208544;28;20036;-85
2023/07/20 08:03:02;;;;;;;0.60;0.60;;;;;;;19.04;64.64;100942.97;5221421;28;20043;-85
2023/07/20 08:05:56;;;;;;;2.10;0.63;;;;;;;18.98;64.37;100948.63;5203076;28;20037;-85
2023/07/20 08:08:46;;;;;;;0.50;0.50;;;;;;;19.14;64.01;100949.41;5203970;28;20058;-84
2023/07/20 08:11:39;;;;;;;4.68;1.23;;;;;;;19.16;63.87;100946.69;5202277;28;20053;-84
2023/07/20 08:14:30;;;;;;;0.77;0.77;;;;;;;19.31;63.66;100943.09;5220688;28;20041;-84
2023/07/20 08:17:21;;;;;;;0.50;0.50;;;;;;;19.38;63.03;100946.22;5222341;28;20287;-84
2023/07/20 08:20:13;;;;;;;0.68;0.60;;;;;;;19.40;61.82;100952.31;5191861;28;20080;-84
2023/07/20 08:23:03;;;;;;;0.30;0.30;;;;;;;19.41;61.83;100954.03;5203559;28;20037;-84
2023/07/20 08:25:54;;;;;;;2.47;0.90;;;;;;;19.43;61.69;100949.47;5204659;28;20815;-84
2023/07/20 08:28:48;;;;;;;0.30;0.30;;;;;;;19.33;61.79;100948.31;5203902;28;20084;-85
2023/07/20 08:31:38;;;;;;;5.25;0.63;;;;;;;19.35;61.82;100946.44;5190495;28;20029;-85
2023/07/20 08:34:30;;;;;;;0.30;0.30;;;;;;;19.45;61.99;100947.59;5186814;28;20676;-84
2023/07/20 08:37:21;;;;;;;0.22;0.22;;;;;;;19.57;62.09;100948.66;5218988;28;20090;-84
2023/07/20 08:40:13;;;;;;;0.38;0.38;;;;;;;19.45;61.61;100949.38;5191271;28;20056;-85
2023/07/20 08:43:04;;;;;;;3.33;1.27;;;;;;;19.46;61.82;100951.09;5185398;28;20119;-84
2023/07/20 08:45:56;;;;;;;0.30;0.30;;;;;;;19.52;61.19;100956.03;5200976;28;20488;-85
2023/07/20 08:48:47;;;;;;;0.40;0.40;;;;;;;19.41;60.76;100948.72;5186778;28;20439;-85
2023/07/20 08:51:39;;;;;;;0.20;0.20;;;;;;;19.35;58.28;100951.75;5204796;28;20138;-84
2023/07/20 08:54:34;;;;;;;0.30;0.30;;;;;;;19.19;56.56;100959.78;5199705;28;20087;-84
2023/07/20 08:57:25;;;;;;;0.20;0.20;;;;;;;19.39;58.07;100947.94;5185972;28;20090;-84
2023/07/20 09:00:17;;;;;;;0.30;0.30;;;;;;;19.26;57.93;100949.66;5200640;28;20470;-84
2023/07/20 09:03:10;;;;;;;0.38;0.38;;;;;;;19.42;58.26;100939.78;5187551;28;20036;-84
2023/07/20 09:06:01;;;;;;;0.25;0.25;;;;;;;19.48;58.75;100942.06;5202762;28;20082;-84
2023/07/20 09:08:51;;;;;;;0.20;0.20;;;;;;;19.39;58.41;100947.94;5189037;28;20281;-85
2023/07/20 09:11:42;;;;;;;0.20;0.20;;;;;;;19.42;58.29;100942.44;5218087;28;20060;-85
2023/07/20 09:14:37;;;;;;;0.20;0.20;;;;;;;19.52;58.43;100941.88;5200114;28;20032;-84
2023/07/20 09:17:28;;;;;;;0.20;0.20;;;;;;;19.57;58.37;100947.78;5202905;28;20045;-85
2023/07/20 09:20:20;;;;;;;0.20;0.20;;;;;;;19.67;57.59;100941.78;5198130;28;20044;-84
2023/07/20 09:23:10;;;;;;;0.28;0.28;;;;;;;19.74;56.48;100944.91;5203040;28;20021;-84
2023/07/20 09:26:14;;;;;;;0.25;0.22;;;;;;;19.76;56.03;100947.47;5241592;28;20097;-85
2023/07/20 09:29:07;;;;;;;0.50;0.50;;;;;;;19.79;56.68;100945.47;5211317;28;20205;-84
2023/07/20 09:32:08;;;;;;;;;;;;;;;19.99;55.47;100943.41;5227643;28;20295;-85
2023/07/20 09:34:59;;;;;;;0.30;0.30;;;;;;;19.85;53.68;100943.44;5211030;28;19924;-84
2023/07/20 09:37:54;;;;;;;0.40;0.40;;;;;;;19.95;55.19;100956.06;5235177;28;20033;-84
2023/07/20 09:40:45;;;;;;;0.20;0.20;;;;;;;19.90;56.37;100954.66;5182295;28;20065;-84
2023/07/20 09:43:36;;;;;;;0.20;0.20;;;;;;;19.90;56.17;100934.22;5197364;28;20259;-84
2023/07/20 09:46:41;;;;;;;0.17;0.17;;;;;;;20.00;56.52;100936.31;5217011;28;20045;-84
2023/07/20 09:49:32;;;;;;;0.90;0.40;;;;;;;20.07;56.72;100932.28;5197781;28;20106;-84
2023/07/20 09:52:24;;;;;;;0.30;0.30;;;;;;;20.07;56.73;100934.94;5197751;28;20024;-84
2023/07/20 09:55:16;;;;;;;0.50;0.50;;;;;;;20.15;55.45;100931.78;5212205;28;20029;-85
2023/07/20 09:58:09;;;;;;;0.20;0.20;;;;;;;20.11;55.65;100934.66;5183770;28;20039;-84
2023/07/20 10:01:06;;;;;;;0.40;0.40;;;;;;;20.10;54.91;100932.94;5220694;28;20322;-85
2023/07/20 10:04:01;;;;;;;0.38;0.38;;;;;;;20.18;54.11;100923.59;5186761;28;20153;-83
2023/07/20 10:06:56;;;;;;;0.50;0.50;;;;;;;20.29;54.20;100927.28;5200596;28;20025;-85
2023/07/20 10:09:48;;;;;;;7.05;5.95;;;;;;;20.42;53.68;100924.66;5204373;28;20120;-85
2023/07/20 10:12:40;;;;;;;7.57;2.63;;;;;;;20.39;53.21;100922.19;5202719;28;20380;-84
2023/07/20 10:15:40;;;;;;;2.83;1.55;;;;;;;20.40;53.57;100933.72;5215399;28;20033;-85
2023/07/20 10:18:40;;;;;;;0.30;0.30;;;;;;;20.42;53.96;100926.47;5199381;28;20540;-85
2023/07/20 10:21:32;;;;;;;0.30;0.30;;;;;;;20.50;53.95;100923.31;5199150;28;20335;-86
2023/07/20 10:24:24;;;;;;;0.20;0.20;;;;;;;20.60;52.08;100924.41;5231418;28;20061;-84
2023/07/20 10:27:15;;;;;;;0.30;0.30;;;;;;;20.60;53.17;100919.09;5189498;28;20498;-84
2023/07/20 10:30:07;;;;;;;0.30;0.30;;;;;;;20.69;52.28;100928.28;5194454;28;20037;-84
2023/07/20 10:32:57;;;;;;;0.20;0.20;;;;;;;20.69;52.59;100926.47;5190218;28;20029;-84
2023/07/20 10:35:53;;;;;;;0.20;0.20;;;;;;;20.70;53.10;100924.66;5203535;28;20124;-84
2023/07/20 10:38:47;;;;;;;0.55;0.38;;;;;;;20.76;52.46;100926.94;5183592;28;20060;-84
2023/07/20 10:41:42;;;;;;;0.35;0.35;;;;;;;20.83;52.01;100919.38;5188468;28;20013;-83
2023/07/20 10:44:34;;;;;;;0.30;0.30;;;;;;;20.80;51.57;100911.59;5196359;28;20079;-84
2023/07/20 10:47:25;;;;;;;0.20;0.20;;;;;;;20.80;51.60;100912.44;5199375;28;20035;-84
2023/07/20 10:50:21;;;;;;;0.35;0.35;;;;;;;20.78;51.54;100903.69;5201395;28;20071;-85
2023/07/20 10:53:15;;;;;;;0.20;0.20;;;;;;;20.82;51.44;100904.34;5192325;28;20036;-85
2023/07/20 10:56:15;;;;;;;0.20;0.20;;;;;;;20.83;50.89;100901.56;5204787;28;20350;-85
2023/07/20 10:59:36;;;;;;;0.43;0.43;;;;;;;20.96;51.59;100893.59;5199909;28;20033;-84
2023/07/20 11:02:27;;;;;;;0.20;0.20;;;;;;;20.99;50.17;100893.38;5186569;28;20021;-84
2023/07/20 11:05:36;;;;;;;3.30;1.25;;;;;;;21.14;50.47;100894.16;5188949;28;20095;-84
2023/07/20 11:08:42;;;;;;;0.20;0.20;;;;;;;21.16;50.86;100888.69;5204451;28;20033;-84
2023/07/20 11:11:35;;;;;;;0.30;0.30;;;;;;;21.17;51.55;100879.75;5201749;28;20044;-84
2023/07/20 11:14:26;;;;;;;3.10;1.13;;;;;;;21.29;50.18;100888.72;5202021;28;20044;-84
2023/07/20 11:17:22;;;;;;;0.50;0.50;;;;;;;21.29;49.96;100891.38;5187397;28;20013;-85
2023/07/20 11:20:13;;;;;;;0.50;0.50;;;;;;;21.31;49.42;100892.13;5188726;28;20091;-85
2023/07/20 11:23:04;;;;;;;0.30;0.30;;;;;;;21.25;49.71;100888.06;5200349;28;20064;-84
2023/07/20 11:25:55;;;;;;;0.20;0.20;;;;;;;21.29;50.60;100889.53;5200700;28;20753;-84
2023/07/20 11:28:51;;;;;;;0.20;0.20;;;;;;;21.29;50.79;100884.22;5205161;28;20020;-85
2023/07/20 11:31:43;;;;;;;0.30;0.30;;;;;;;21.36;50.55;100882.81;5197654;28;20024;-84
2023/07/20 11:34:35;;;;;;;0.20;0.20;;;;;;;21.48;50.41;100883.78;5190541;28;20048;-84
2023/07/20 11:37:26;;;;;;;0.40;0.40;;;;;;;21.52;49.53;100879.94;5192821;28;20025;-84
2023/07/20 11:40:16;;;;;;;0.30;0.30;;;;;;;21.48;48.91;100880.25;5207173;28;20029;-86
2023/07/20 11:43:08;;;;;;;0.20;0.20;;;;;;;21.39;48.14;100879.94;5208498;28;20224;-84
2023/07/20 11:45:59;;;;;;;0.20;0.20;;;;;;;21.46;45.75;100882.16;5205340;28;20114;-84
2023/07/20 11:48:56;;;;;;;0.20;0.20;;;;;;;21.53;46.15;100880.78;5205352;28;20025;-84
2023/07/20 11:51:47;;;;;;;0.25;0.25;;;;;;;21.52;47.94;100873.75;5209263;28;20028;-84
2023/07/20 11:54:39;;;;;;;0.20;0.20;;;;;;;21.62;46.74;100869.47;5190663;28;20048;-85
2023/07/20 11:57:30;;;;;;;0.20;0.20;;;;;;;21.49;46.37;100871.28;5188824;28;20524;-85
2023/07/20 12:00:24;;;;;;;0.20;0.20;;;;;;;21.56;46.69;100861.88;5205447;28;20029;-85
2023/07/20 12:03:15;;;;;;;0.30;0.30;;;;;;;21.60;46.79;100862.53;5190235;28;20048;-85
2023/07/20 12:06:08;;;;;;;0.20;0.20;;;;;;;21.55;46.19;100865.50;5208743;28;20659;-85
2023/07/20 12:09:00;;;;;;;0.20;0.20;;;;;;;21.64;46.98;100870.22;5191789;28;20115;-86
2023/07/20 12:11:50;;;;;;;0.28;0.28;;;;;;;21.52;45.82;100863.91;5188544;28;20021;-84
2023/07/20 12:14:41;;;;;;;0.20;0.20;;;;;;;21.53;47.06;100870.09;5207518;28;20036;-84
2023/07/20 12:17:32;;;;;;;15.23;0.75;;;;;;;21.64;47.59;100872.06;5207469;28;20055;-83
2023/07/20 12:20:29;;;;;;;0.63;0.63;;;;;;;21.70;48.53;100867.09;5206685;28;20045;-84
2023/07/20 12:23:19;;;;;;;0.30;0.30;;;;;;;21.77;48.66;100866.69;5189123;28;20041;-85
2023/07/20 12:26:11;;;;;;;0.20;0.20;;;;;;;21.87;49.33;100859.69;5196784;28;20053;-86
2023/07/20 12:29:03;;;;;;;0.20;0.20;;;;;;;21.88;47.95;100858.72;5208441;28;20036;-84
2023/07/20 12:31:54;;;;;;;0.20;0.20;;;;;;;21.79;46.66;100862.06;5190122;28;20135;-85
2023/07/20 12:34:44;;;;;;;0.20;0.20;;;;;;;21.95;47.84;100864.50;5219656;28;20090;-85
2023/07/20 12:37:35;;;;;;;0.20;0.20;;;;;;;22.02;47.86;100847.88;5207447;28;20136;-86
2023/07/20 12:40:26;;;;;;;0.20;0.20;;;;;;;22.18;47.04;100846.78;5182737;28;20047;-84
2023/07/20 12:43:17;;;;;;;0.40;0.40;;;;;;;22.26;45.65;100847.06;5188560;28;20093;-86
2023/07/20 12:46:08;;;;;;;0.20;0.20;;;;;;;22.10;46.54;100846.50;5197852;28;20047;-85
2023/07/20 12:48:59;;;;;;;0.25;0.25;;;;;;;22.15;46.81;100852.34;5198930;28;20120;-84
2023/07/20 12:51:50;;;;;;;0.20;0.20;;;;;;;22.17;44.43;100853.06;5217073;28;20112;-85
2023/07/20 12:54:41;;;;;;;0.43;0.43;;;;;;;22.13;43.72;100846.25;5194129;28;20036;-85
2023/07/20 12:57:34;;;;;;;0.57;0.57;;;;;;;22.16;44.75;100846.88;5184087;28;20033;-84
2023/07/20 13:00:24;;;;;;;0.32;0.32;;;;;;;22.25;44.70;100841.81;5199888;28;20040;-84
2023/07/20 13:03:18;;;;;;;0.20;0.20;;;;;;;22.25;44.01;100840.00;5202715;28;20028;-86
2023/07/20 13:06:09;;;;;;;0.60;0.60;;;;;;;22.22;43.90;100834.88;5207249;28;20044;-84
2023/07/20 13:09:00;;;;;;;0.20;0.20;;;;;;;22.28;43.91;100837.06;5186881;28;20135;-85
2023/07/20 13:11:52;;;;;;;0.20;0.20;;;;;;;22.30;43.29;100837.81;5199159;28;20128;-85
2023/07/20 13:14:43;;;;;;;0.20;0.20;;;;;;;22.15;42.01;100825.59;5209764;28;20037;-85
2023/07/20 13:17:35;;;;;;;21.25;1.20;;;;;;;22.22;42.90;100834.88;5211738;28;20028;-84
2023/07/20 13:20:28;;;;;;;0.47;0.47;;;;;;;22.19;42.60;100827.06;5191697;28;20087;-86